Time;durP1;ratioP1;P1;durP2;ratioP2;P2;SDS_P1;SDS_P2;PMS_P1;PMS_P2;Temp;Humidity;BMP_temperature;BMP_pressure;BME280_temperature;BME280_humidity;BME280_pressure;Samples;Min_cycle;Max_cycle;Signal;HPM_P1;HPM_P2
2021/09/18 00:02:19;;;;;;;2.67;2.58;;;20.10;99.90;;;20.57;72.20;101552.69;5114448;28;20067;-73
2021/09/18 00:04:47;;;;;;;2.40;2.30;;;20.20;99.90;;;20.51;72.01;101536.75;5096043;28;20040;-73
2021/09/18 00:07:17;;;;;;;2.53;2.42;;;20.30;99.90;;;20.44;71.96;101522.63;5113962;28;20489;-72
2021/09/18 00:09:46;;;;;;;2.40;2.30;;;20.30;99.90;;;20.53;71.89;101551.91;5113972;28;20058;-72
2021/09/18 00:12:14;;;;;;;2.67;2.58;;;20.20;99.90;;;20.48;71.83;101544.91;5113940;28;20047;-72
2021/09/18 00:14:43;;;;;;;2.42;2.33;;;20.30;99.90;;;20.57;71.89;101548.19;5113936;28;20465;-72
2021/09/18 00:17:12;;;;;;;2.47;2.38;;;20.30;99.90;;;20.53;71.99;101551.03;5113810;28;20378;-72
2021/09/18 00:19:41;;;;;;;2.50;2.40;;;20.20;99.90;;;20.54;72.00;101550.09;5095838;28;20542;-73
2021/09/18 00:22:10;;;;;;;2.92;2.83;;;20.20;99.90;;;20.54;72.03;101547.41;5113890;28;20031;-72
2021/09/18 00:24:40;;;;;;;2.85;2.75;;;20.20;99.90;;;20.27;72.22;101499.97;5113720;28;20531;-72
2021/09/18 00:27:08;;;;;;;3.00;2.90;;;20.20;99.90;;;20.54;72.10;101547.41;5113691;28;20458;-72
2021/09/18 00:29:37;;;;;;;2.85;2.75;;;20.20;99.90;;;20.52;72.16;101550.13;5113895;28;20040;-72
2021/09/18 00:32:06;;;;;;;2.65;2.55;;;20.20;99.90;;;20.51;72.05;101548.41;5095626;28;20459;-73
2021/09/18 00:34:34;;;;;;;2.40;2.30;;;20.20;99.90;;;20.46;71.96;101536.91;5113632;28;20378;-72
2021/09/18 00:37:03;;;;;;;2.90;2.80;;;20.20;99.90;;;20.52;72.04;101544.75;5113540;28;20097;-72
2021/09/18 00:39:32;;;;;;;3.00;2.90;;;20.20;99.90;;;20.54;72.05;101540.22;5113578;28;20122;-72
2021/09/18 00:42:01;;;;;;;3.10;2.85;;;20.20;99.90;;;20.58;71.77;101540.97;5113380;28;20048;-73
2021/09/18 00:44:30;;;;;;;2.50;2.40;;;20.20;99.90;;;20.45;71.81;101523.53;5113618;28;20113;-73
2021/09/18 00:46:58;;;;;;;2.85;2.72;;;20.20;99.90;;;20.40;71.65;101522.81;5113807;28;20532;-73
2021/09/18 00:49:27;;;;;;;2.83;2.72;;;20.20;99.90;;;20.42;71.92;101524.50;5113332;28;20397;-73
2021/09/18 00:51:55;;;;;;;2.50;2.40;;;20.20;99.90;;;20.46;71.92;101536.06;5113434;28;20493;-73
2021/09/18 00:54:25;;;;;;;2.58;2.47;;;20.20;99.90;;;20.41;72.05;101544.25;5113691;28;20050;-73
2021/09/18 00:56:54;;;;;;;2.40;2.30;;;20.10;99.90;;;20.42;72.14;101543.31;5113670;28;20119;-73
2021/09/18 00:59:24;;;;;;;2.50;2.40;;;20.10;99.90;;;20.45;72.35;101547.72;5095265;28;20109;-73
2021/09/18 01:01:52;;;;;;;2.37;2.27;;;20.10;99.90;;;20.43;72.34;101539.72;5113551;28;20051;-72
2021/09/18 01:04:22;;;;;;;2.78;2.67;;;20.10;99.90;;;20.44;72.31;101545.97;5113289;28;20288;-73
2021/09/18 01:06:51;;;;;;;2.28;2.17;;;20.10;99.90;;;20.36;72.39;101546.22;5117067;28;20500;-72
2021/09/18 01:09:20;;;;;;;2.58;2.47;;;20.10;99.90;;;20.37;72.46;101539.91;5117979;28;20068;-73
2021/09/18 01:11:50;;;;;;;2.58;2.47;;;20.00;99.90;;;20.14;72.29;101487.84;5117655;28;20086;-73
2021/09/18 01:14:18;;;;;;;2.92;2.83;;;20.10;99.90;;;20.36;72.53;101538.16;5117383;28;20138;-73
2021/09/18 01:16:48;;;;;;;2.67;2.58;;;20.10;99.90;;;20.26;72.40;101509.84;5117524;28;20066;-73
2021/09/18 01:19:17;;;;;;;2.38;2.28;;;20.10;99.90;;;20.24;72.50;101516.19;5117575;28;20483;-72
2021/09/18 01:21:48;;;;;;;2.30;2.20;;;20.10;99.90;;;20.27;72.61;101516.97;5117485;28;20079;-73
2021/09/18 01:24:19;;;;;;;2.78;2.67;;;20.10;99.90;;;20.49;72.38;101538.63;5117404;28;20122;-73
2021/09/18 01:26:48;;;;;;;2.55;2.45;;;20.10;99.90;;;20.41;72.28;101538.88;5117521;28;20125;-73
2021/09/18 01:29:16;;;;;;;3.30;3.15;;;20.10;99.90;;;20.04;73.65;101540.13;5117098;28;20050;-73
2021/09/18 01:31:47;;;;;;;2.92;2.72;;;19.80;99.90;;;19.17;75.45;101484.69;5117249;28;20430;-73
2021/09/18 01:34:19;;;;;;;3.22;3.13;;;19.30;99.90;;;19.27;76.48;101510.31;5117016;28;20055;-73
2021/09/18 01:36:48;;;;;;;2.40;2.30;;;19.00;99.90;;;19.49;76.39;101533.78;5116945;28;20036;-73
2021/09/18 01:39:21;;;;;;;3.30;3.20;;;19.00;99.90;;;19.35;76.01;101509.22;5117060;28;20101;-73
2021/09/18 01:41:50;;;;;;;3.20;3.10;;;19.10;99.90;;;19.50;76.13;101538.25;5117060;28;20288;-73
2021/09/18 01:44:19;;;;;;;2.50;2.40;;;19.10;99.90;;;19.55;76.11;101535.44;5116763;28;20044;-73
2021/09/18 01:46:47;;;;;;;2.80;2.70;;;19.20;99.90;;;19.50;76.27;101532.00;5117051;28;20601;-72
2021/09/18 01:49:18;;;;;;;8.02;4.03;;;19.20;99.90;;;19.33;76.23;101511.06;5117213;28;20071;-73
2021/09/18 01:51:55;;;;;;;2.50;2.40;;;19.20;99.90;;;19.38;76.65;101532.34;5116897;28;20093;-73
2021/09/18 01:54:28;;;;;;;2.42;2.33;;;19.10;99.90;;;19.35;76.84;101532.47;5116869;28;20046;-73
2021/09/18 01:56:57;;;;;;;4.78;3.95;;;19.00;99.90;;;19.18;77.25;101524.84;5116784;28;20078;-73
2021/09/18 01:59:26;;;;;;;3.20;3.03;;;18.80;99.90;;;18.92;78.66;101528.31;5116744;28;20070;-72
2021/09/18 02:01:54;;;;;;;3.22;3.13;;;18.50;99.90;;;18.96;78.53;101506.75;5098367;28;20047;-72
2021/09/18 02:04:23;;;;;;;3.95;3.58;;;18.60;99.90;;;19.10;78.73;101526.91;5098230;28;20489;-72
2021/09/18 02:06:51;;;;;;;3.40;3.22;;;18.60;99.90;;;19.01;78.79;101516.44;5116898;28;20039;-72
2021/09/18 02:09:20;;;;;;;2.90;2.80;;;18.60;99.90;;;18.97;79.12;101530.00;5098180;28;20051;-72
2021/09/18 02:11:49;;;;;;;5.63;5.07;;;18.50;99.90;;;19.01;79.31;101520.94;5098198;28;20054;-72
2021/09/18 02:14:18;;;;;;;4.33;3.97;;;18.60;99.90;;;19.03;78.83;101527.13;5116431;28;20054;-72
2021/09/18 02:16:46;;;;;;;2.60;2.50;;;18.60;99.90;;;19.14;78.62;101525.00;5115723;28;20040;-72
2021/09/18 02:19:15;;;;;;;2.95;2.85;;;18.70;99.90;;;19.23;78.21;101527.41;5115840;28;20042;-72
2021/09/18 02:21:43;;;;;;;4.15;3.90;;;18.80;99.90;;;19.17;77.60;101490.03;5116007;28;20031;-72
2021/09/18 02:24:12;;;;;;;2.83;2.72;;;18.90;99.90;;;19.44;77.09;101518.75;5116183;28;20049;-72
2021/09/18 02:26:40;;;;;;;2.75;2.65;;;19.10;99.90;;;19.42;76.73;101525.97;5115911;28;20489;-72
2021/09/18 02:29:09;;;;;;;3.53;3.33;;;19.10;99.90;;;19.41;76.34;101522.44;5115904;28;20063;-72
2021/09/18 02:31:38;;;;;;;2.80;2.70;;;19.10;99.90;;;19.28;77.07;101510.25;5116135;28;20516;-73
2021/09/18 02:34:06;;;;;;;3.75;3.45;;;19.00;99.90;;;19.26;77.14;101519.31;5115745;28;20432;-73
2021/09/18 02:36:35;;;;;;;2.97;2.88;;;18.80;99.90;;;19.03;77.66;101503.00;5115739;28;20067;-73
2021/09/18 02:39:03;;;;;;;4.05;3.53;;;18.70;99.90;;;18.76;78.24;101477.84;5115998;28;20175;-73
2021/09/18 02:41:32;;;;;;;2.70;2.60;;;18.60;99.90;;;18.93;78.54;101502.34;5115920;28;20062;-73
2021/09/18 02:44:01;;;;;;;2.65;2.55;;;18.50;99.90;;;19.00;78.36;101503.06;5115504;28;20074;-73
2021/09/18 02:46:31;;;;;;;2.88;2.78;;;18.60;99.90;;;19.06;78.21;101502.91;5115529;28;20055;-73
2021/09/18 02:49:00;;;;;;;;;;;18.60;99.90;;;19.00;78.28;101490.56;5116383;28;20060;-73
2021/09/18 02:51:28;;;;;;;3.08;2.97;;;18.60;99.90;;;19.14;78.08;101498.19;5116039;28;19950;-73
2021/09/18 02:53:58;;;;;;;2.45;2.35;;;18.70;99.90;;;19.18;77.82;101490.00;5115941;28;20039;-73
2021/09/18 02:56:27;;;;;;;2.80;2.70;;;18.80;99.90;;;19.30;77.49;101486.09;5115670;28;20085;-73
2021/09/18 02:58:55;;;;;;;2.58;2.47;;;18.90;99.90;;;19.44;76.90;101491.94;5115840;28;20079;-72
2021/09/18 03:01:24;;;;;;;2.95;2.85;;;19.10;99.90;;;19.50;76.36;101489.06;5115233;28;20104;-72
2021/09/18 03:03:54;;;;;;;2.58;2.47;;;19.20;99.90;;;19.62;76.11;101494.03;5115398;28;20051;-72
2021/09/18 03:06:22;;;;;;;2.40;2.30;;;19.30;99.90;;;19.39;75.86;101453.63;5115485;28;20047;-72
2021/09/18 03:08:51;;;;;;;2.55;2.45;;;19.30;99.90;;;19.62;75.46;101488.69;5097049;28;20073;-72
2021/09/18 03:11:19;;;;;;;2.55;2.45;;;19.30;99.90;;;19.69;75.40;101493.81;5115611;28;20044;-72
2021/09/18 03:13:48;;;;;;;2.78;2.67;;;19.40;99.90;;;19.69;75.17;101484.84;5115024;28;20043;-72
2021/09/18 03:16:16;;;;;;;2.40;2.30;;;19.40;99.90;;;19.79;75.00;101495.28;5115381;28;20116;-72
2021/09/18 03:18:45;;;;;;;2.55;2.45;;;19.50;99.90;;;19.84;74.79;101495.09;5114927;28;20040;-72
2021/09/18 03:21:15;;;;;;;2.30;2.20;;;19.60;99.90;;;19.94;74.76;101495.72;5115140;28;20039;-72
2021/09/18 03:23:43;;;;;;;2.60;2.50;;;19.60;99.90;;;19.88;74.75;101496.75;5115017;28;20089;-72
2021/09/18 03:26:12;;;;;;;2.95;2.85;;;19.60;99.90;;;19.87;74.71;101499.50;5115247;28;20059;-72
2021/09/18 03:28:40;;;;;;;2.58;2.47;;;19.60;99.90;;;19.73;74.91;101474.00;5114289;28;20077;-73
2021/09/18 03:31:08;;;;;;;2.70;2.60;;;19.50;99.90;;;19.82;74.83;101497.00;5114386;28;20039;-72
2021/09/18 03:33:38;;;;;;;2.72;2.63;;;19.60;99.90;;;19.69;75.16;101496.50;5114628;28;20039;-73
2021/09/18 03:36:07;;;;;;;3.10;3.00;;;19.50;99.90;;;19.54;75.94;101493.41;5114574;28;20446;-73
2021/09/18 03:38:37;;;;;;;2.88;2.78;;;19.30;99.90;;;19.42;76.34;101486.63;5096515;28;20134;-73
2021/09/18 03:41:05;;;;;;;2.60;2.50;;;19.20;99.90;;;19.31;76.95;101488.72;5114477;28;20040;-72
2021/09/18 03:43:33;;;;;;;2.85;2.75;;;19.10;99.90;;;19.22;76.84;101480.06;5096362;28;20131;-72
2021/09/18 03:46:02;;;;;;;3.63;3.33;;;19.10;99.90;;;19.30;77.44;101503.03;5114789;28;20044;-72
2021/09/18 03:48:30;;;;;;;3.22;2.97;;;19.00;99.90;;;19.27;77.52;101500.47;5114609;28;20538;-72
2021/09/18 03:50:59;;;;;;;2.80;2.70;;;19.10;99.90;;;19.24;77.54;101481.75;5114845;28;20477;-73
2021/09/18 03:53:27;;;;;;;2.53;2.42;;;19.00;99.90;;;19.26;77.35;101484.44;5096186;28;20067;-72
2021/09/18 03:55:57;;;;;;;2.90;2.80;;;19.10;99.90;;;19.42;77.22;101501.81;5114205;28;20079;-73
2021/09/18 03:58:25;;;;;;;3.43;3.33;;;19.10;99.90;;;19.43;76.81;101509.84;5114198;28;20047;-72
2021/09/18 04:00:54;;;;;;;2.80;2.70;;;19.10;99.90;;;19.31;77.02;101478.00;5114384;28;20123;-73
2021/09/18 04:03:23;;;;;;;2.72;2.63;;;19.20;99.90;;;19.49;76.81;101508.78;5114334;28;20036;-73
2021/09/18 04:05:54;;;;;;;3.22;3.13;;;19.20;99.90;;;19.55;76.64;101511.28;5113974;28;20100;-72
2021/09/18 04:08:22;;;;;;;4.13;3.92;;;19.30;99.90;;;19.44;76.79;101511.59;5114565;28;20039;-72
2021/09/18 04:10:51;;;;;;;3.15;3.05;;;19.20;99.90;;;19.48;76.69;101509.69;5113956;28;20096;-72
2021/09/18 04:13:21;;;;;;;3.10;3.00;;;19.20;99.90;;;19.35;77.02;101514.56;5114471;28;20039;-72
2021/09/18 04:15:49;;;;;;;2.40;2.30;;;19.10;99.90;;;19.20;77.82;101511.44;5113747;28;20048;-72
2021/09/18 04:18:17;;;;;;;2.80;2.70;;;19.00;99.90;;;19.26;77.75;101516.63;5113811;28;20286;-72
2021/09/18 04:20:46;;;;;;;2.95;2.85;;;19.00;99.90;;;19.27;77.79;101513.88;5114068;28;20031;-72
2021/09/18 04:23:14;;;;;;;7.28;6.60;;;19.00;99.90;;;19.31;77.71;101517.34;5113718;28;20431;-72
2021/09/18 04:25:42;;;;;;;3.10;3.00;;;19.00;99.90;;;19.36;77.74;101520.78;5113653;28;20035;-72
2021/09/18 04:28:11;;;;;;;2.80;2.70;;;19.10;99.90;;;19.39;77.45;101518.91;5114217;28;20043;-72
2021/09/18 04:30:41;;;;;;;2.78;2.67;;;19.10;99.90;;;19.33;77.21;101510.16;5113683;28;20539;-72
2021/09/18 04:33:09;;;;;;;2.87;2.77;;;19.10;99.90;;;19.42;77.02;101520.59;5114216;28;20130;-72
2021/09/18 04:35:37;;;;;;;4.20;3.00;;;19.20;99.90;;;19.41;77.15;101524.22;5113866;28;20346;-72
2021/09/18 04:38:07;;;;;;;3.20;3.10;;;19.10;99.90;;;19.46;76.98;101524.97;5113462;28;20043;-73
2021/09/18 04:40:35;;;;;;;2.67;2.58;;;19.20;99.90;;;19.37;76.96;101519.88;5113379;28;20050;-72
2021/09/18 04:43:04;;;;;;;3.10;3.00;;;19.20;99.90;;;19.42;76.94;101520.59;5113797;28;20048;-72
2021/09/18 04:45:33;;;;;;;2.70;2.60;;;19.20;99.90;;;19.49;76.71;101528.44;5113236;28;20050;-72
2021/09/18 04:48:02;;;;;;;3.30;3.17;;;19.20;99.90;;;19.50;76.59;101532.88;5113648;28;20469;-72
2021/09/18 04:50:31;;;;;;;4.13;3.05;;;19.20;99.90;;;19.44;76.65;101533.06;5113644;28;20054;-72
2021/09/18 04:53:00;;;;;;;2.30;2.20;;;19.20;99.90;;;19.45;76.64;101539.31;5113386;28;20455;-73
2021/09/18 04:55:28;;;;;;;2.95;2.85;;;19.10;99.90;;;19.41;76.69;101527.81;5113660;28;20044;-73
2021/09/18 04:57:56;;;;;;;2.72;2.63;;;19.20;99.90;;;19.47;76.62;101542.84;5113391;28;20066;-73
2021/09/18 05:00:25;;;;;;;3.22;3.13;;;19.20;99.90;;;19.43;76.63;101541.16;5113330;28;20459;-73
2021/09/18 05:02:53;;;;;;;3.03;2.92;;;19.20;99.90;;;19.39;76.87;101544.88;5113322;28;20040;-72
2021/09/18 05:05:24;;;;;;;3.70;3.50;;;19.10;99.90;;;19.40;76.64;101543.94;5113241;28;20047;-73
2021/09/18 05:07:52;;;;;;;3.70;3.40;;;19.10;99.90;;;19.30;77.08;101545.13;5113297;28;20044;-73
2021/09/18 05:10:20;;;;;;;2.30;2.20;;;19.10;99.90;;;19.35;77.15;101544.09;5113315;28;20435;-73
2021/09/18 05:12:49;;;;;;;3.13;3.03;;;19.10;99.90;;;19.22;77.52;101542.63;5113302;28;20046;-73
2021/09/18 05:15:17;;;;;;;2.78;2.67;;;18.90;99.90;;;19.08;77.96;101541.28;5113134;28;20505;-73
2021/09/18 05:17:46;;;;;;;3.22;3.13;;;18.80;99.90;;;18.99;78.57;101546.91;5113216;28;20092;-73
2021/09/18 05:20:15;;;;;;;3.30;3.20;;;18.70;99.90;;;18.63;79.63;101525.56;5113446;28;20123;-73
2021/09/18 05:22:44;;;;;;;4.25;4.05;;;18.40;99.90;;;18.55;80.83;101550.78;5113197;28;20442;-73
2021/09/18 05:25:13;;;;;;;2.50;2.40;;;18.20;99.90;;;18.30;82.21;101555.88;5113078;28;20382;-73
2021/09/18 05:27:41;;;;;;;6.57;3.72;;;18.00;99.90;;;18.23;82.30;101554.28;5113312;28;20051;-72
2021/09/18 05:30:13;;;;;;;3.08;2.97;;;17.80;99.90;;;18.08;82.85;101551.94;5113126;28;20400;-72
2021/09/18 05:32:41;;;;;;;2.83;2.72;;;17.70;99.90;;;17.94;84.18;101554.94;5113375;28;20048;-72
2021/09/18 05:35:10;;;;;;;3.42;3.33;;;17.50;99.90;;;17.96;84.22;101557.63;5113341;28;20540;-73
2021/09/18 05:37:39;;;;;;;4.43;4.13;;;17.50;99.90;;;18.08;84.24;101554.63;5113267;28;20047;-73
2021/09/18 05:40:11;;;;;;;2.75;2.65;;;17.60;99.90;;;18.21;83.80;101553.44;5113233;28;20084;-73
2021/09/18 05:42:39;;;;;;;2.65;2.55;;;17.80;99.90;;;18.29;83.58;101558.59;5113004;28;20036;-73
2021/09/18 05:45:09;;;;;;;3.15;3.00;;;17.90;99.90;;;18.38;83.05;101543.16;5113020;28;20039;-72
2021/09/18 05:47:38;;;;;;;2.45;2.35;;;18.10;99.90;;;18.62;82.52;101571.16;5112922;28;20056;-72
2021/09/18 05:50:07;;;;;;;2.95;2.85;;;18.20;99.90;;;18.61;82.33;101567.59;5113211;28;20051;-72
2021/09/18 05:52:35;;;;;;;2.50;2.40;;;18.20;99.90;;;18.75;81.77;101576.16;5113994;28;20044;-72
2021/09/18 05:55:08;;;;;;;2.38;2.28;;;18.40;99.90;;;18.84;81.35;101570.53;5117099;28;20485;-72
2021/09/18 05:57:36;;;;;;;2.45;2.35;;;18.50;99.90;;;18.95;80.86;101569.38;5117052;28;20069;-72
2021/09/18 06:00:06;;;;;;;2.40;2.30;;;18.60;99.90;;;19.04;80.27;101572.69;5116693;28;20039;-72
2021/09/18 06:02:34;;;;;;;3.70;3.50;;;18.70;99.90;;;19.13;79.83;101571.53;5116409;28;20097;-72
2021/09/18 06:05:05;;;;;;;2.58;2.47;;;18.80;99.90;;;19.05;79.54;101549.44;5116271;28;20085;-72
2021/09/18 06:07:33;;;;;;;3.15;3.05;;;18.90;99.90;;;19.20;79.36;101562.41;5116298;28;20039;-72
2021/09/18 06:10:02;;;;;;;3.78;3.60;;;18.90;99.90;;;19.17;79.32;101567.84;5098217;28;20048;-72
2021/09/18 06:12:32;;;;;;;2.78;2.67;;;18.90;99.90;;;19.11;79.46;101576.94;5116191;28;20069;-72
2021/09/18 06:15:01;;;;;;;2.45;2.35;;;18.80;99.90;;;18.89;80.15;101560.56;5116484;28;20054;-72
2021/09/18 06:17:30;;;;;;;3.00;2.90;;;18.70;99.90;;;18.96;80.31;101576.47;5116054;28;20044;-72
2021/09/18 06:19:58;;;;;;;3.72;3.53;;;18.60;99.90;;;18.73;81.15;101575.31;5116341;28;20047;-72
2021/09/18 06:22:26;;;;;;;2.97;2.88;;;18.40;99.90;;;18.58;81.97;101580.19;5098022;28;20142;-72
2021/09/18 06:24:55;;;;;;;4.15;3.95;;;18.20;99.90;;;18.51;82.80;101573.22;5115839;28;20100;-72
2021/09/18 06:27:24;;;;;;;2.83;2.72;;;18.10;99.90;;;18.32;82.81;101543.31;5115888;28;20038;-72
2021/09/18 06:29:54;;;;;;;3.72;3.53;;;18.10;99.90;;;18.58;82.85;101581.06;5115819;28;20054;-72
2021/09/18 06:32:22;;;;;;;2.30;2.20;;;18.20;99.90;;;18.67;82.84;101586.19;5116021;28;20046;-72
2021/09/18 06:34:51;;;;;;;2.88;2.78;;;18.30;99.90;;;18.62;83.08;101577.38;5115683;28;20044;-72
2021/09/18 06:37:19;;;;;;;4.40;4.05;;;18.30;99.90;;;18.75;82.88;101588.66;5115871;28;20043;-72
2021/09/18 06:39:47;;;;;;;2.70;2.60;;;18.40;99.90;;;18.72;83.01;101569.97;5097697;28;20047;-72
2021/09/18 06:42:16;;;;;;;2.80;2.70;;;18.40;99.90;;;18.60;82.96;101563.13;5097605;28;20046;-72
2021/09/18 06:44:45;;;;;;;5.20;4.68;;;18.50;99.90;;;18.56;83.69;101587.41;5097682;28;20056;-72
2021/09/18 06:47:15;;;;;;;4.55;4.25;;;18.30;99.90;;;18.67;83.85;101586.19;5115041;28;20442;-72
2021/09/18 06:49:43;;;;;;;2.60;2.50;;;18.30;99.90;;;18.59;84.31;101590.88;5115938;28;20063;-72
2021/09/18 06:52:11;;;;;;;5.10;4.70;;;18.30;99.90;;;18.73;83.46;101593.19;5099162;28;20562;-72
2021/09/18 06:54:41;;;;;;;9.27;8.68;;;18.40;99.90;;;18.80;83.85;101592.09;5115112;28;20039;-72
2021/09/18 06:57:11;;;;;;;8.65;5.43;;;18.40;99.90;;;18.82;83.40;101591.16;5115007;28;20043;-72
2021/09/18 06:59:40;;;;;;;3.90;3.70;;;18.50;99.90;;;18.51;85.17;101592.84;5096879;28;20051;-72
2021/09/18 07:02:09;;;;;;;4.55;4.25;;;18.30;99.90;;;18.72;85.06;101592.31;5114654;28;20122;-72
2021/09/18 07:04:39;;;;;;;3.95;3.72;;;18.30;99.90;;;18.47;85.56;101593.84;5114631;28;20443;-72
2021/09/18 07:07:07;;;;;;;9.25;7.05;;;18.20;99.90;;;18.40;85.67;101569.91;5115438;28;20040;-72
2021/09/18 07:09:36;;;;;;;2.60;2.50;;;18.10;99.90;;;18.43;86.15;101568.06;5115052;28;20123;-71
2021/09/18 07:12:05;;;;;;;3.00;2.90;;;18.10;99.90;;;18.63;85.80;101600.59;5115277;28;20046;-71
2021/09/18 07:14:33;;;;;;;2.60;2.50;;;18.20;99.90;;;18.69;85.55;101570.06;5096779;28;20040;-72
2021/09/18 07:17:02;;;;;;;3.88;3.67;;;18.40;99.90;;;18.97;84.59;101599.72;5115135;28;20472;-72
2021/09/18 07:19:30;;;;;;;4.25;4.00;;;18.60;99.90;;;18.63;85.04;101568.44;5115137;28;20031;-71
2021/09/18 07:22:00;;;;;;;7.40;5.35;;;18.50;99.90;;;18.56;85.19;101566.81;5096835;28;20553;-72
2021/09/18 07:24:31;;;;;;;3.78;3.58;;;18.40;99.90;;;18.68;85.37;101593.31;5114757;28;20096;-71
2021/09/18 07:27:00;;;;;;;4.13;3.90;;;18.30;99.90;;;18.54;85.58;101541.84;5114996;28;20065;-72
2021/09/18 07:29:29;;;;;;;8.18;6.15;;;18.40;99.90;;;18.92;85.95;101602.50;5096670;28;20134;-73
2021/09/18 07:31:57;;;;;;;5.78;5.40;;;18.50;99.90;;;18.78;85.95;101592.16;5114793;28;20036;-73
2021/09/18 07:34:26;;;;;;;13.23;10.32;;;18.40;99.90;;;18.86;86.26;101602.66;5114616;28;20035;-74
2021/09/18 07:36:54;;;;;;;6.40;5.85;;;18.40;99.90;;;18.92;86.47;101607.88;5114302;28;20502;-73
2021/09/18 07:39:24;;;;;;;4.10;3.85;;;18.40;99.90;;;19.04;86.98;101606.66;5096331;28;20126;-73
2021/09/18 07:41:52;;;;;;;9.02;6.57;;;18.60;99.90;;;18.93;86.73;101606.94;5114660;28;20079;-83
2021/09/18 07:44:21;;;;;;;6.63;6.13;;;18.60;99.90;;;19.09;87.66;101604.72;5114460;28;20094;-78
2021/09/18 07:46:49;;;;;;;8.45;7.60;;;18.60;99.90;;;19.25;87.31;101611.41;5114139;28;20040;-77
2021/09/18 07:49:18;;;;;;;10.18;6.75;;;18.80;99.90;;;19.35;86.54;101612.97;5114300;28;20451;-89
2021/09/18 07:51:47;;;;;;;7.10;6.47;;;18.90;99.90;;;19.56;85.23;101615.03;5114225;28;20050;-72
2021/09/18 07:54:15;;;;;;;10.35;8.80;;;19.10;99.90;;;19.67;84.03;101616.47;5113922;28;20477;-72
2021/09/18 07:56:45;;;;;;;9.93;6.47;;;19.20;99.90;;;19.86;83.50;101622.16;5114030;28;20047;-72
2021/09/18 07:59:13;;;;;;;20.77;10.20;;;19.40;99.90;;;20.07;82.32;101629.56;5114246;28;20047;-71
2021/09/18 08:01:42;;;;;;;7.18;6.47;;;19.60;99.90;;;20.16;81.26;101626.59;5113943;28;20820;-71
2021/09/18 08:04:11;;;;;;;3.25;3.03;;;19.70;99.90;;;20.21;80.38;101621.09;5095915;28;20110;-75
2021/09/18 08:06:40;;;;;;;4.05;3.75;;;19.80;99.90;;;20.44;80.28;101616.72;5114397;28;20082;-71
2021/09/18 08:09:09;;;;;;;3.17;3.00;;;20.00;99.90;;;20.68;80.02;101632.03;5114119;28;20039;-70
2021/09/18 08:11:37;;;;;;;8.98;5.97;;;20.30;99.90;;;20.62;78.81;101634.06;5114153;28;20574;-72
2021/09/18 08:14:07;;;;;;;3.92;3.70;;;20.30;99.90;;;20.62;78.21;101634.94;5114031;28;20481;-69
2021/09/18 08:16:35;;;;;;;2.80;2.70;;;20.30;99.90;;;20.85;77.24;101638.69;5113474;28;20397;-68
2021/09/18 08:19:04;;;;;;;3.70;3.45;;;20.40;99.90;;;21.05;75.04;101641.56;5113711;28;20043;-73
2021/09/18 08:21:33;;;;;;;5.03;4.05;;;20.60;99.90;;;20.66;74.92;101603.44;5095770;28;20055;-72
2021/09/18 08:24:01;;;;;;;4.00;3.70;;;20.50;99.90;;;20.79;73.58;101630.81;5095811;28;20043;-71
2021/09/18 08:26:30;;;;;;;9.68;7.05;;;20.50;99.90;;;20.93;74.53;101629.38;5113873;28;20039;-71
2021/09/18 08:28:59;;;;;;;3.28;3.17;;;20.60;99.90;;;21.01;73.81;101626.47;5113590;28;20032;-72
2021/09/18 08:31:29;;;;;;;6.22;5.45;;;20.60;99.90;;;21.38;72.58;101637.66;5095682;28;20051;-74
2021/09/18 08:33:57;;;;;;;4.82;4.53;;;21.00;99.90;;;21.60;70.00;101635.06;5113572;28;20408;-71
2021/09/18 08:36:31;;;;;;;7.57;6.28;;;21.20;99.90;;;21.68;69.73;101641.03;5113599;28;20489;-73
2021/09/18 08:38:59;;;;;;;7.55;6.82;;;21.30;99.90;;;21.82;68.90;101636.91;5113495;28;20469;-70
2021/09/18 08:41:29;;;;;;;5.28;4.78;;;21.40;99.90;;;21.84;67.44;101642.22;5113679;28;20048;-69
2021/09/18 08:43:58;;;;;;;4.05;3.72;;;21.50;99.90;;;21.92;66.30;101624.84;5113787;28;20062;-72
2021/09/18 08:46:31;;;;;;;6.35;5.90;;;21.60;99.90;;;22.02;66.70;101630.75;5113642;28;20127;-71
2021/09/18 08:49:00;;;;;;;3.58;3.38;;;21.60;99.90;;;21.99;65.62;101637.13;5113961;28;20059;-70
2021/09/18 08:51:28;;;;;;;8.02;6.60;;;21.60;99.90;;;21.94;66.82;101635.56;5113351;28;20047;-73
2021/09/18 08:53:57;;;;;;;4.38;4.07;;;21.60;99.90;;;22.06;66.19;101644.06;5095330;28;20052;-72
2021/09/18 08:56:25;;;;;;;8.02;6.47;;;21.60;99.90;;;22.23;66.35;101637.97;5113610;28;20036;-72
2021/09/18 08:58:54;;;;;;;3.17;3.05;;;21.90;99.90;;;21.93;66.06;101610.41;5113309;28;20052;-72
2021/09/18 09:01:22;;;;;;;2.80;2.70;;;21.80;99.90;;;22.33;65.29;101644.75;5113284;28;20044;-72
2021/09/18 09:04:00;;;;;;;7.90;4.95;;;21.90;99.90;;;22.32;66.32;101613.34;5113332;28;20066;-71
2021/09/18 09:06:42;;;;;;;2.78;2.67;;;22.10;99.90;;;22.44;65.88;101639.78;5113253;28;20052;-71
2021/09/18 09:09:11;;;;;;;4.65;4.35;;;22.10;99.90;;;22.55;65.42;101639.38;5113492;28;20104;-71
2021/09/18 09:11:49;;;;;;;8.20;6.88;;;22.20;99.90;;;22.02;65.80;101603.78;5113370;28;20032;-73
2021/09/18 09:14:18;;;;;;;8.52;4.45;;;22.00;99.90;;;22.22;64.42;101615.53;5113403;28;20089;-72
2021/09/18 09:17:02;;;;;;;12.35;6.78;;;22.00;99.90;;;21.73;65.16;101574.41;5112947;28;20040;-76
2021/09/18 09:19:40;;;;;;;4.43;4.00;;;21.80;99.90;;;22.34;66.33;101642.00;5113738;28;20044;-73
2021/09/18 09:22:08;;;;;;;3.83;3.00;;;21.90;99.90;;;22.33;65.25;101640.25;5113044;28;20059;-73
2021/09/18 09:24:48;;;;;;;2.95;2.85;;;21.90;99.90;;;22.30;65.72;101640.38;5112870;28;20115;-74
2021/09/18 09:27:20;;;;;;;4.73;4.33;;;21.90;99.90;;;21.78;65.27;101581.34;5115012;28;20044;-73
2021/09/18 09:29:52;;;;;;;4.03;3.83;;;21.80;99.90;;;22.17;65.26;101647.19;5116968;28;20100;-73
2021/09/18 09:32:29;;;;;;;5.28;4.85;;;21.80;99.90;;;22.14;65.48;101619.50;5116896;28;20054;-88
2021/09/18 09:35:02;;;;;;;5.00;4.53;;;21.90;99.90;;;22.53;65.51;101647.50;5117168;28;20093;-72
2021/09/18 09:37:30;;;;;;;4.88;4.38;;;22.10;99.90;;;22.81;65.07;101647.28;5098918;28;20052;-80
2021/09/18 09:40:03;;;;;;;4.38;3.40;;;22.40;99.90;;;22.68;63.87;101648.72;5117250;28;20047;-77
2021/09/18 09:42:34;;;;;;;8.25;3.90;;;22.30;99.90;;;22.86;63.82;101651.53;5117042;28;20489;-75
2021/09/18 09:45:15;;;;;;;6.47;5.43;;;22.50;99.90;;;22.76;63.45;101652.00;5116746;28;20043;-79
2021/09/18 09:47:44;;;;;;;;;;;22.50;99.90;;;22.81;64.96;101653.56;5098836;28;20496;-76
2021/09/18 09:50:15;;;;;;;3.72;3.53;;;22.40;99.90;;;22.81;63.28;101652.66;5116844;28;20010;-75
2021/09/18 09:52:48;;;;;;;3.60;3.40;;;22.50;99.90;;;22.85;60.63;101624.63;5116959;28;20040;-80
2021/09/18 09:55:20;;;;;;;6.05;5.40;;;22.70;99.90;;;23.03;58.59;101657.09;5116890;28;20054;-78
2021/09/18 09:57:59;;;;;;;3.20;3.00;;;22.70;99.90;;;23.07;58.53;101649.75;5098559;28;20055;-82
2021/09/18 10:00:39;;;;;;;4.05;3.60;;;22.70;99.90;;;23.27;56.89;101642.50;5098372;28;20097;-73
2021/09/18 10:03:08;;;;;;;6.25;3.30;;;22.90;99.90;;;23.30;56.94;101664.00;5116637;28;20105;-71
2021/09/18 10:05:39;;;;;;;3.25;3.05;;;23.00;99.90;;;23.62;56.29;101659.88;5098382;28;20039;-74
2021/09/18 10:08:07;;;;;;;4.10;3.58;;;23.30;99.90;;;23.44;53.65;101638.22;5116297;28;20477;-71
2021/09/18 10:10:36;;;;;;;4.90;4.07;;;23.30;99.90;;;23.33;52.58;101644.09;5116410;28;20040;-72
2021/09/18 10:13:05;;;;;;;6.88;5.63;;;23.20;99.90;;;23.53;55.85;101646.78;5116387;28;20039;-69
2021/09/18 10:15:34;;;;;;;4.35;4.07;;;23.20;99.90;;;23.15;53.41;101647.59;5097858;28;20054;-69
2021/09/18 10:18:03;;;;;;;4.55;4.25;;;22.90;99.90;;;23.13;53.64;101630.59;5116324;28;20119;-70
2021/09/18 10:23:23;;;;;;;4.55;4.18;;;22.90;99.90;;;23.79;53.58;101651.00;5116021;28;20379;-70
2021/09/18 10:25:54;;;;;;;3.08;2.97;;;23.40;99.90;;;23.50;53.40;101619.03;5097911;28;20427;-69